Ship Status Report: callsign PF2437

sailwx.info

Track history (hours):
 
Tides and Currents Weather Stations Pressure Air Temp Water Temp Dewpoint Dewpoint Depression Visibility Wind Speed Wind Dir Waves Ship Positions

Callsign PF2437 (name unknown)

Last reported at 2015-Mar-26 12:33 UTC. Time now 2015-Mar-27 15:39 UTC.
Position N 52°26' E 004°45'.

Date/timePositionNaut miles runAvg speedWind from/ knotsBaromVisibWave heightAir tempDewpointWater temp
2015-Mar-26 12:33N 52°26' E 004°45'0 0.1
2015-Mar-26 11:33N 52°26' E 004°45'0 0.0
2015-Mar-26 10:33N 52°26' E 004°45'0 0.0
2015-Mar-26 09:33N 52°26' E 004°45'0 0.0
2015-Mar-26 08:33N 52°26' E 004°45'0 0.0
2015-Mar-26 07:33N 52°26' E 004°45'0 0.0
2015-Mar-26 06:33N 52°26' E 004°45'0 0.0
2015-Mar-26 05:33N 52°26' E 004°45'0 0.0
2015-Mar-26 04:33N 52°26' E 004°45'0 0.0
2015-Mar-26 03:33N 52°26' E 004°45'0 0.0
2015-Mar-26 02:33N 52°26' E 004°45'0 0.0
2015-Mar-26 01:33N 52°26' E 004°45'0 0.0
2015-Mar-26 00:33N 52°26' E 004°45'0 0.0
2015-Mar-25 23:33N 52°26' E 004°45'0 0.0
2015-Mar-25 22:33N 52°26' E 004°45'0 0.0
2015-Mar-25 21:33N 52°26' E 004°45'0 0.0
2015-Mar-25 20:33N 52°26' E 004°45'0 0.0
2015-Mar-25 19:33N 52°26' E 004°45'3 3.3
2015-Mar-25 18:34N 52°25' E 004°50'1 1.3
2015-Mar-25 17:33N 52°26' E 004°50'3 3.0
2015-Mar-25 16:31N 52°29' E 004°48'5 5.5
2015-Mar-25 15:33N 52°34' E 004°45'2 2.4
2015-Mar-25 14:33N 52°37' E 004°46'0 0.0
2015-Mar-25 13:33N 52°37' E 004°46'0 0.0
2015-Mar-25 12:33N 52°37' E 004°46'0 0.0
2015-Mar-25 11:33N 52°37' E 004°46'0 0.0
2015-Mar-25 10:33N 52°37' E 004°46'0 0.0
2015-Mar-25 09:33N 52°37' E 004°46'0 0.0
2015-Mar-25 08:33N 52°37' E 004°46'0 0.0
2015-Mar-25 07:33N 52°37' E 004°46'0 0.0
2015-Mar-25 06:33N 52°37' E 004°46'0 0.0
2015-Mar-25 05:33N 52°37' E 004°46'0 0.0
2015-Mar-25 04:33N 52°37' E 004°46'0 0.0
2015-Mar-25 03:33N 52°37' E 004°46'0 0.0
2015-Mar-25 02:33N 52°37' E 004°46'0 0.0
2015-Mar-25 01:33N 52°37' E 004°46'0 0.0
2015-Mar-25 00:33N 52°37' E 004°46'0 0.0
2015-Mar-24 23:33N 52°37' E 004°46'0 0.0
2015-Mar-24 22:33N 52°37' E 004°46'0 0.0
2015-Mar-24 21:33N 52°37' E 004°46'0 0.0
2015-Mar-24 20:33N 52°37' E 004°46'1 0.7
2015-Mar-24 19:33N 52°37' E 004°46'1 0.7
2015-Mar-24 18:33N 52°37' E 004°46'0 0.0
2015-Mar-24 17:33N 52°37' E 004°46'0 0.0
2015-Mar-24 16:33N 52°37' E 004°46'0 0.0
2015-Mar-24 15:33N 52°37' E 004°46'0 0.0
2015-Mar-24 14:33N 52°37' E 004°46'0 0.0
2015-Mar-24 13:33N 52°37' E 004°46'0 0.0
2015-Mar-24 12:33N 52°37' E 004°46'0 0.0
2015-Mar-24 11:33N 52°37' E 004°46'0 0.0
2015-Mar-24 10:33N 52°37' E 004°46'0 0.0
2015-Mar-24 09:33N 52°37' E 004°46'0 0.0
2015-Mar-24 08:33N 52°37' E 004°46'3 3.1
2015-Mar-24 07:33N 52°33' E 004°45'5 5.2
2015-Mar-24 06:33N 52°29' E 004°49'2 2.5
2015-Mar-24 05:33N 52°26' E 004°50'0 0.1
2015-Mar-24 04:33N 52°26' E 004°50'0 0.0
2015-Mar-24 03:33N 52°26' E 004°50'0 0.0
2015-Mar-24 02:33N 52°26' E 004°50'0 0.0
2015-Mar-24 01:33N 52°26' E 004°50'0 0.0
2015-Mar-24 00:33N 52°26' E 004°50'0 0.0
2015-Mar-23 23:33N 52°26' E 004°50'1 0.6
2015-Mar-23 22:34N 52°26' E 004°50'7 6.5
2015-Mar-23 21:33N 52°21' E 004°58'7 6.8
2015-Mar-23 20:33N 52°15' E 005°01'7 6.8
2015-Mar-23 19:32N 52°08' E 005°03'7 7.1
2015-Mar-23 18:34N 52°01' E 005°07'4 3.5
2015-Mar-23 17:34N 51°59' E 005°03'7 7.1
2015-Mar-23 16:33N 51°56' E 004°52'8 8.2
2015-Mar-23 15:34N 51°53' E 004°40'7 6.6
2015-Mar-23 14:33N 51°55' E 004°29'3 2.6
2015-Mar-23 13:33N 51°53' E 004°26'0 0.0
2015-Mar-23 12:34N 51°53' E 004°26'0 0.0
2015-Mar-23 11:34N 51°53' E 004°26'0 0.0
2015-Mar-23 10:33N 51°53' E 004°26'0 0.0
2015-Mar-23 09:34N 51°53' E 004°26'0 0.0
2015-Mar-23 08:33N 51°53' E 004°26'0 0.0
2015-Mar-23 07:33N 51°53' E 004°26'0 0.0
2015-Mar-23 06:33N 51°53' E 004°26'0 0.0
2015-Mar-23 05:33N 51°53' E 004°26'1 0.8
2015-Mar-23 04:33N 51°54' E 004°26'6 5.5
2015-Mar-23 03:33N 51°54' E 004°35'8 8.0
2015-Mar-23 02:34N 51°49' E 004°45'5 4.7
2015-Mar-23 01:33N 51°49' E 004°53'0 0.0
2015-Mar-23 00:33N 51°49' E 004°53'0 0.0
2015-Mar-22 23:33N 51°49' E 004°53'0 0.0
2015-Mar-22 22:33N 51°49' E 004°53'0 0.0
2015-Mar-22 21:33N 51°49' E 004°53'0 0.0
2015-Mar-22 20:33N 51°49' E 004°53'0 0.0
2015-Mar-21 00:06N 51°49' E 004°53'0 0.0
2015-Mar-20 23:33N 51°49' E 004°53'0 0.0
2015-Mar-20 22:33N 51°49' E 004°53'0 0.0
2015-Mar-20 11:33N 51°49' E 004°53'0 0.0
2015-Mar-20 10:28N 51°49' E 004°53'0 0.0
2015-Mar-20 09:26N 51°49' E 004°53'0 0.0
2015-Mar-20 08:32N 51°49' E 004°53'0 0.0
2015-Mar-20 07:33N 51°49' E 004°53'0 0.0
2015-Mar-20 06:32N 51°49' E 004°53'0 0.0
2015-Mar-20 05:29N 51°49' E 004°53'0 0.0
2015-Mar-20 04:30N 51°49' E 004°53'0 0.0
2015-Mar-20 03:25N 51°49' E 004°53'0 0.0
2015-Mar-20 02:10N 51°49' E 004°53'0 0.0
2015-Mar-20 00:31N 51°49' E 004°53'0 0.0
2015-Mar-19 23:32N 51°49' E 004°53'0 0.0
2015-Mar-19 22:14N 51°49' E 004°53'0 0.0
2015-Mar-19 21:30N 51°49' E 004°53'0 0.0
2015-Mar-19 20:28N 51°49' E 004°53'0 0.0
2015-Mar-19 19:28N 51°49' E 004°53'0 0.0
2015-Mar-19 18:27N 51°49' E 004°53'0 0.0
2015-Mar-19 17:33N 51°49' E 004°53'0 0.0
2015-Mar-19 16:33N 51°49' E 004°53'0 0.0
2015-Mar-19 15:33N 51°49' E 004°53'0 0.0
2015-Mar-19 14:33N 51°49' E 004°53'0 0.0
2015-Mar-19 13:33N 51°49' E 004°53'0 0.0
2015-Mar-19 12:24N 51°49' E 004°53'0 0.0
2015-Mar-19 11:33N 51°49' E 004°53'0 0.0
2015-Mar-19 10:31N 51°49' E 004°53'0 0.0
2015-Mar-19 09:33N 51°49' E 004°53'0 0.0
2015-Mar-19 08:28N 51°49' E 004°53'0 0.0
2015-Mar-19 07:33N 51°49' E 004°53'0 0.0
2015-Mar-19 06:33N 51°49' E 004°53'0 0.0
2015-Mar-19 05:33N 51°49' E 004°53'0 0.0
2015-Mar-19 04:33N 51°49' E 004°53'0 0.0
2015-Mar-19 03:33N 51°49' E 004°53'0 0.0
2015-Mar-19 02:33N 51°49' E 004°53'0 0.0
2015-Mar-19 01:33N 51°49' E 004°53'0 0.0
2015-Mar-19 00:33N 51°49' E 004°53'0 0.0
2015-Mar-18 23:33N 51°49' E 004°53'0 0.0
2015-Mar-18 22:33N 51°49' E 004°53'0 0.0
2015-Mar-18 21:33N 51°49' E 004°53'0 0.0
2015-Mar-18 20:34N 51°49' E 004°53'0 0.0
2015-Mar-18 19:33N 51°49' E 004°53'0 0.0
2015-Mar-18 18:34N 51°49' E 004°53'0 0.0
2015-Mar-18 17:34N 51°49' E 004°53'0 0.0
2015-Mar-18 16:32N 51°49' E 004°53'0 0.0
2015-Mar-18 15:33N 51°49' E 004°53'0 0.0
2015-Mar-18 14:20N 51°49' E 004°53'0 0.0
2015-Mar-18 13:33N 51°49' E 004°53'0 0.0
2015-Mar-18 12:33N 51°49' E 004°53'0 0.0
2015-Mar-18 11:33N 51°49' E 004°53'2 2.2
2015-Mar-18 10:33N 51°50' E 004°56'9 9.2
2015-Mar-18 09:33N 51°49' E 005°11'7 6.6
2015-Mar-18 08:33N 51°48' E 005°22'4 3.7
2015-Mar-18 07:33N 51°49' E 005°27'3 3.4
2015-Mar-18 06:34N 51°48' E 005°33'0 0.0
2015-Mar-18 05:33N 51°48' E 005°33'0 0.0
2015-Mar-18 04:33N 51°48' E 005°33'0 0.0
2015-Mar-18 03:34N 51°48' E 005°33'0 0.0
2015-Mar-18 02:33N 51°48' E 005°33'0 0.0
2015-Mar-18 01:33N 51°48' E 005°33'0 0.0
2015-Mar-18 00:33N 51°48' E 005°33'0 0.0
2015-Mar-17 23:34N 51°48' E 005°33'0 0.0
2015-Mar-17 22:33N 51°48' E 005°33'0 0.0
2015-Mar-17 21:33N 51°48' E 005°33'0 0.0
2015-Mar-17 20:33N 51°48' E 005°33'1 0.8
2015-Mar-17 19:34N 51°47' E 005°32'0 0.0
2015-Mar-17 18:27N 51°47' E 005°32'0 0.0
2015-Mar-17 13:09N 51°47' E 005°32'0 0.0
2015-Mar-17 12:31N 51°47' E 005°32'0 0.0
2015-Mar-17 11:25N 51°47' E 005°33'3 3.6
2015-Mar-17 10:31N 51°50' E 005°36'6 6.3
2015-Mar-17 09:33N 51°46' E 005°44'  
Track history (hours):
 
Tides and Currents Weather Stations Pressure Air Temp Water Temp Dewpoint Dewpoint Depression Visibility Wind Speed Wind Dir Waves Ship Positions

Callsign PF2437 (name unknown)

Last reported at 2015-Mar-26 12:33 UTC. Time now 2015-Mar-27 15:39 UTC.
Position N 52°26' E 004°45'.

Date/timePositionNaut miles runAvg speedWind from/ knotsBaromVisibWave heightAir tempDewpointWater temp
2015-Mar-26 12:33N 52°26' E 004°45'0 0.1
2015-Mar-26 11:33N 52°26' E 004°45'0 0.0
2015-Mar-26 10:33N 52°26' E 004°45'0 0.0
2015-Mar-26 09:33N 52°26' E 004°45'0 0.0
2015-Mar-26 08:33N 52°26' E 004°45'0 0.0
2015-Mar-26 07:33N 52°26' E 004°45'0 0.0
2015-Mar-26 06:33N 52°26' E 004°45'0 0.0
2015-Mar-26 05:33N 52°26' E 004°45'0 0.0
2015-Mar-26 04:33N 52°26' E 004°45'0 0.0
2015-Mar-26 03:33N 52°26' E 004°45'0 0.0
2015-Mar-26 02:33N 52°26' E 004°45'0 0.0
2015-Mar-26 01:33N 52°26' E 004°45'0 0.0
2015-Mar-26 00:33N 52°26' E 004°45'0 0.0
2015-Mar-25 23:33N 52°26' E 004°45'0 0.0
2015-Mar-25 22:33N 52°26' E 004°45'0 0.0
2015-Mar-25 21:33N 52°26' E 004°45'0 0.0
2015-Mar-25 20:33N 52°26' E 004°45'0 0.0
2015-Mar-25 19:33N 52°26' E 004°45'3 3.3
2015-Mar-25 18:34N 52°25' E 004°50'1 1.3
2015-Mar-25 17:33N 52°26' E 004°50'3 3.0
2015-Mar-25 16:31N 52°29' E 004°48'5 5.5
2015-Mar-25 15:33N 52°34' E 004°45'2 2.4
2015-Mar-25 14:33N 52°37' E 004°46'0 0.0
2015-Mar-25 13:33N 52°37' E 004°46'0 0.0
2015-Mar-25 12:33N 52°37' E 004°46'0 0.0
2015-Mar-25 11:33N 52°37' E 004°46'0 0.0
2015-Mar-25 10:33N 52°37' E 004°46'0 0.0
2015-Mar-25 09:33N 52°37' E 004°46'0 0.0
2015-Mar-25 08:33N 52°37' E 004°46'0 0.0
2015-Mar-25 07:33N 52°37' E 004°46'0 0.0
2015-Mar-25 06:33N 52°37' E 004°46'0 0.0
2015-Mar-25 05:33N 52°37' E 004°46'0 0.0
2015-Mar-25 04:33N 52°37' E 004°46'0 0.0
2015-Mar-25 03:33N 52°37' E 004°46'0 0.0
2015-Mar-25 02:33N 52°37' E 004°46'0 0.0
2015-Mar-25 01:33N 52°37' E 004°46'0 0.0
2015-Mar-25 00:33N 52°37' E 004°46'0 0.0
2015-Mar-24 23:33N 52°37' E 004°46'0 0.0
2015-Mar-24 22:33N 52°37' E 004°46'0 0.0
2015-Mar-24 21:33N 52°37' E 004°46'0 0.0
2015-Mar-24 20:33N 52°37' E 004°46'1 0.7
2015-Mar-24 19:33N 52°37' E 004°46'1 0.7
2015-Mar-24 18:33N 52°37' E 004°46'0 0.0
2015-Mar-24 17:33N 52°37' E 004°46'0 0.0
2015-Mar-24 16:33N 52°37' E 004°46'0 0.0
2015-Mar-24 15:33N 52°37' E 004°46'0 0.0
2015-Mar-24 14:33N 52°37' E 004°46'0 0.0
2015-Mar-24 13:33N 52°37' E 004°46'0 0.0
2015-Mar-24 12:33N 52°37' E 004°46'0 0.0
2015-Mar-24 11:33N 52°37' E 004°46'0 0.0
2015-Mar-24 10:33N 52°37' E 004°46'0 0.0
2015-Mar-24 09:33N 52°37' E 004°46'0 0.0
2015-Mar-24 08:33N 52°37' E 004°46'3 3.1
2015-Mar-24 07:33N 52°33' E 004°45'5 5.2
2015-Mar-24 06:33N 52°29' E 004°49'2 2.5
2015-Mar-24 05:33N 52°26' E 004°50'0 0.1
2015-Mar-24 04:33N 52°26' E 004°50'0 0.0
2015-Mar-24 03:33N 52°26' E 004°50'0 0.0
2015-Mar-24 02:33N 52°26' E 004°50'0 0.0
2015-Mar-24 01:33N 52°26' E 004°50'0 0.0
2015-Mar-24 00:33N 52°26' E 004°50'0 0.0
2015-Mar-23 23:33N 52°26' E 004°50'1 0.6
2015-Mar-23 22:34N 52°26' E 004°50'7 6.5
2015-Mar-23 21:33N 52°21' E 004°58'7 6.8
2015-Mar-23 20:33N 52°15' E 005°01'7 6.8
2015-Mar-23 19:32N 52°08' E 005°03'7 7.1
2015-Mar-23 18:34N 52°01' E 005°07'4 3.5
2015-Mar-23 17:34N 51°59' E 005°03'7 7.1
2015-Mar-23 16:33N 51°56' E 004°52'8 8.2
2015-Mar-23 15:34N 51°53' E 004°40'7 6.6
2015-Mar-23 14:33N 51°55' E 004°29'3 2.6
2015-Mar-23 13:33N 51°53' E 004°26'0 0.0
2015-Mar-23 12:34N 51°53' E 004°26'0 0.0
2015-Mar-23 11:34N 51°53' E 004°26'0 0.0
2015-Mar-23 10:33N 51°53' E 004°26'0 0.0
2015-Mar-23 09:34N 51°53' E 004°26'0 0.0
2015-Mar-23 08:33N 51°53' E 004°26'0 0.0
2015-Mar-23 07:33N 51°53' E 004°26'0 0.0
2015-Mar-23 06:33N 51°53' E 004°26'0 0.0
2015-Mar-23 05:33N 51°53' E 004°26'1 0.8
2015-Mar-23 04:33N 51°54' E 004°26'6 5.5
2015-Mar-23 03:33N 51°54' E 004°35'8 8.0
2015-Mar-23 02:34N 51°49' E 004°45'5 4.7
2015-Mar-23 01:33N 51°49' E 004°53'0 0.0
2015-Mar-23 00:33N 51°49' E 004°53'0 0.0
2015-Mar-22 23:33N 51°49' E 004°53'0 0.0
2015-Mar-22 22:33N 51°49' E 004°53'0 0.0
2015-Mar-22 21:33N 51°49' E 004°53'0 0.0
2015-Mar-22 20:33N 51°49' E 004°53'0 0.0
2015-Mar-21 00:06N 51°49' E 004°53'0 0.0
2015-Mar-20 23:33N 51°49' E 004°53'0 0.0
2015-Mar-20 22:33N 51°49' E 004°53'0 0.0
2015-Mar-20 11:33N 51°49' E 004°53'0 0.0
2015-Mar-20 10:28N 51°49' E 004°53'0 0.0
2015-Mar-20 09:26N 51°49' E 004°53'0 0.0
2015-Mar-20 08:32N 51°49' E 004°53'0 0.0
2015-Mar-20 07:33N 51°49' E 004°53'0 0.0
2015-Mar-20 06:32N 51°49' E 004°53'0 0.0
2015-Mar-20 05:29N 51°49' E 004°53'0 0.0
2015-Mar-20 04:30N 51°49' E 004°53'0 0.0
2015-Mar-20 03:25N 51°49' E 004°53'0 0.0
2015-Mar-20 02:10N 51°49' E 004°53'0 0.0
2015-Mar-20 00:31N 51°49' E 004°53'0 0.0
2015-Mar-19 23:32N 51°49' E 004°53'0 0.0
2015-Mar-19 22:14N 51°49' E 004°53'0 0.0
2015-Mar-19 21:30N 51°49' E 004°53'0 0.0
2015-Mar-19 20:28N 51°49' E 004°53'0 0.0
2015-Mar-19 19:28N 51°49' E 004°53'0 0.0
2015-Mar-19 18:27N 51°49' E 004°53'0 0.0
2015-Mar-19 17:33N 51°49' E 004°53'0 0.0
2015-Mar-19 16:33N 51°49' E 004°53'0 0.0
2015-Mar-19 15:33N 51°49' E 004°53'0 0.0
2015-Mar-19 14:33N 51°49' E 004°53'0 0.0
2015-Mar-19 13:33N 51°49' E 004°53'0 0.0
2015-Mar-19 12:24N 51°49' E 004°53'0 0.0
2015-Mar-19 11:33N 51°49' E 004°53'0 0.0
2015-Mar-19 10:31N 51°49' E 004°53'0 0.0
2015-Mar-19 09:33N 51°49' E 004°53'0 0.0
2015-Mar-19 08:28N 51°49' E 004°53'0 0.0
2015-Mar-19 07:33N 51°49' E 004°53'0 0.0
2015-Mar-19 06:33N 51°49' E 004°53'0 0.0
2015-Mar-19 05:33N 51°49' E 004°53'0 0.0
2015-Mar-19 04:33N 51°49' E 004°53'0 0.0
2015-Mar-19 03:33N 51°49' E 004°53'0 0.0
2015-Mar-19 02:33N 51°49' E 004°53'0 0.0
2015-Mar-19 01:33N 51°49' E 004°53'0 0.0
2015-Mar-19 00:33N 51°49' E 004°53'0 0.0
2015-Mar-18 23:33N 51°49' E 004°53'0 0.0
2015-Mar-18 22:33N 51°49' E 004°53'0 0.0
2015-Mar-18 21:33N 51°49' E 004°53'0 0.0
2015-Mar-18 20:34N 51°49' E 004°53'0 0.0
2015-Mar-18 19:33N 51°49' E 004°53'0 0.0
2015-Mar-18 18:34N 51°49' E 004°53'0 0.0
2015-Mar-18 17:34N 51°49' E 004°53'0 0.0
2015-Mar-18 16:32N 51°49' E 004°53'0 0.0
2015-Mar-18 15:33N 51°49' E 004°53'0 0.0
2015-Mar-18 14:20N 51°49' E 004°53'0 0.0
2015-Mar-18 13:33N 51°49' E 004°53'0 0.0
2015-Mar-18 12:33N 51°49' E 004°53'0 0.0
2015-Mar-18 11:33N 51°49' E 004°53'2 2.2
2015-Mar-18 10:33N 51°50' E 004°56'9 9.2
2015-Mar-18 09:33N 51°49' E 005°11'7 6.6
2015-Mar-18 08:33N 51°48' E 005°22'4 3.7
2015-Mar-18 07:33N 51°49' E 005°27'3 3.4
2015-Mar-18 06:34N 51°48' E 005°33'0 0.0
2015-Mar-18 05:33N 51°48' E 005°33'0 0.0
2015-Mar-18 04:33N 51°48' E 005°33'0 0.0
2015-Mar-18 03:34N 51°48' E 005°33'0 0.0
2015-Mar-18 02:33N 51°48' E 005°33'0 0.0
2015-Mar-18 01:33N 51°48' E 005°33'0 0.0
2015-Mar-18 00:33N 51°48' E 005°33'0 0.0
2015-Mar-17 23:34N 51°48' E 005°33'0 0.0
2015-Mar-17 22:33N 51°48' E 005°33'0 0.0
2015-Mar-17 21:33N 51°48' E 005°33'0 0.0
2015-Mar-17 20:33N 51°48' E 005°33'1 0.8
2015-Mar-17 19:34N 51°47' E 005°32'0 0.0
2015-Mar-17 18:27N 51°47' E 005°32'0 0.0
2015-Mar-17 13:09N 51°47' E 005°32'0 0.0
2015-Mar-17 12:31N 51°47' E 005°32'0 0.0
2015-Mar-17 11:25N 51°47' E 005°33'3 3.6
2015-Mar-17 10:31N 51°50' E 005°36'6 6.3
2015-Mar-17 09:33N 51°46' E 005°44'  

Dump ship's entire track history